Alpachiri, Argentina
Current Conditions -  °F | °C
As of 5:00 AM on Saturday 20 Dec 2014 (Local Time) from SAZN Reporting Station
Clear Clear  
Wind Chill: 55°   Ceiling: Unl
Heat Index: 55°   Visibility: 6mi
Dew Point: 27°   Wind: 8mph
Humidity: 33%   Direction: 200°SSW
Pressure: 29.77"   Gusts: NA
Location:  37.37°S, 63.77°W
Report Text: SAZN 200800Z 20007KT CAVOK 13/M03 Q1008
Loading
Personal Weather Stations






























Interactive Weather Map New forecast layout! Learn more

10-Day Weather Forecast

Advertisements
Track Severe Weather on mobile